sensor_id;sensor_type;location;lat;lon;timestamp;temperature;humidity
19248;DHT22;9758;48.640;8.148;2022-08-21T00:00:08;20.80;45.50
19248;DHT22;9758;48.640;8.148;2022-08-21T00:02:36;20.80;45.50
19248;DHT22;9758;48.640;8.148;2022-08-21T00:05:03;20.70;45.40
19248;DHT22;9758;48.640;8.148;2022-08-21T00:07:32;20.70;45.50
19248;DHT22;9758;48.640;8.148;2022-08-21T00:09:59;20.70;45.50
19248;DHT22;9758;48.640;8.148;2022-08-21T00:12:25;20.60;45.50
19248;DHT22;9758;48.640;8.148;2022-08-21T00:14:52;20.60;45.60
19248;DHT22;9758;48.640;8.148;2022-08-21T00:17:19;20.60;45.50
19248;DHT22;9758;48.640;8.148;2022-08-21T00:19:47;20.60;45.60
19248;DHT22;9758;48.640;8.148;2022-08-21T00:22:13;20.60;45.60
19248;DHT22;9758;48.640;8.148;2022-08-21T00:24:42;20.50;45.60
19248;DHT22;9758;48.640;8.148;2022-08-21T00:27:08;20.50;45.60
19248;DHT22;9758;48.640;8.148;2022-08-21T00:29:35;20.50;45.60
19248;DHT22;9758;48.640;8.148;2022-08-21T00:32:02;20.50;45.60
19248;DHT22;9758;48.640;8.148;2022-08-21T00:34:29;20.50;45.60
19248;DHT22;9758;48.640;8.148;2022-08-21T00:36:55;20.50;45.60
19248;DHT22;9758;48.640;8.148;2022-08-21T00:39:22;20.50;45.60
19248;DHT22;9758;48.640;8.148;2022-08-21T00:41:50;20.40;45.60
19248;DHT22;9758;48.640;8.148;2022-08-21T00:44:17;20.40;45.70
19248;DHT22;9758;48.640;8.148;2022-08-21T00:46:44;20.40;45.70
19248;DHT22;9758;48.640;8.148;2022-08-21T00:49:12;20.30;45.70
19248;DHT22;9758;48.640;8.148;2022-08-21T00:51:43;20.30;45.80
19248;DHT22;9758;48.640;8.148;2022-08-21T00:54:11;20.30;45.80
19248;DHT22;9758;48.640;8.148;2022-08-21T00:56:39;20.20;45.80
19248;DHT22;9758;48.640;8.148;2022-08-21T00:59:07;20.30;45.90
19248;DHT22;9758;48.640;8.148;2022-08-21T01:01:35;20.20;45.80
19248;DHT22;9758;48.640;8.148;2022-08-21T01:04:03;20.20;45.80
19248;DHT22;9758;48.640;8.148;2022-08-21T01:06:29;20.20;45.80
19248;DHT22;9758;48.640;8.148;2022-08-21T01:08:57;20.20;45.90
19248;DHT22;9758;48.640;8.148;2022-08-21T01:11:24;20.20;45.90
19248;DHT22;9758;48.640;8.148;2022-08-21T01:13:50;20.10;45.90
19248;DHT22;9758;48.640;8.148;2022-08-21T01:16:20;20.10;45.90
19248;DHT22;9758;48.640;8.148;2022-08-21T01:18:48;20.10;45.90
19248;DHT22;9758;48.640;8.148;2022-08-21T01:21:19;20.10;46.00
19248;DHT22;9758;48.640;8.148;2022-08-21T01:23:49;20.00;45.90
19248;DHT22;9758;48.640;8.148;2022-08-21T01:26:21;20.00;46.00
19248;DHT22;9758;48.640;8.148;2022-08-21T01:28:52;20.00;46.00
19248;DHT22;9758;48.640;8.148;2022-08-21T01:31:23;19.90;46.00
19248;DHT22;9758;48.640;8.148;2022-08-21T01:33:51;19.90;46.10
19248;DHT22;9758;48.640;8.148;2022-08-21T01:36:19;19.90;46.10
19248;DHT22;9758;48.640;8.148;2022-08-21T01:38:47;19.90;46.00
19248;DHT22;9758;48.640;8.148;2022-08-21T01:41:14;19.90;46.00
19248;DHT22;9758;48.640;8.148;2022-08-21T01:43:41;19.90;46.00
19248;DHT22;9758;48.640;8.148;2022-08-21T01:46:09;19.90;46.00
19248;DHT22;9758;48.640;8.148;2022-08-21T01:48:36;19.90;46.00
19248;DHT22;9758;48.640;8.148;2022-08-21T01:51:03;19.90;46.00
19248;DHT22;9758;48.640;8.148;2022-08-21T01:53:32;19.90;46.10
19248;DHT22;9758;48.640;8.148;2022-08-21T01:56:01;19.90;46.70
19248;DHT22;9758;48.640;8.148;2022-08-21T01:58:28;19.80;46.10
19248;DHT22;9758;48.640;8.148;2022-08-21T02:00:55;19.80;46.10
19248;DHT22;9758;48.640;8.148;2022-08-21T02:03:21;19.80;46.10
19248;DHT22;9758;48.640;8.148;2022-08-21T02:05:48;19.80;46.10
19248;DHT22;9758;48.640;8.148;2022-08-21T02:08:15;19.70;46.10
19248;DHT22;9758;48.640;8.148;2022-08-21T02:10:43;19.70;46.20
19248;DHT22;9758;48.640;8.148;2022-08-21T02:13:12;19.70;46.10
19248;DHT22;9758;48.640;8.148;2022-08-21T02:15:39;19.70;46.20
19248;DHT22;9758;48.640;8.148;2022-08-21T02:18:05;19.60;46.10
19248;DHT22;9758;48.640;8.148;2022-08-21T02:20:35;19.70;46.20
19248;DHT22;9758;48.640;8.148;2022-08-21T02:23:03;19.60;46.20
19248;DHT22;9758;48.640;8.148;2022-08-21T02:25:30;19.60;46.20
19248;DHT22;9758;48.640;8.148;2022-08-21T02:27:59;19.60;46.20
19248;DHT22;9758;48.640;8.148;2022-08-21T02:30:31;19.60;46.30
19248;DHT22;9758;48.640;8.148;2022-08-21T02:32:59;19.60;46.30
19248;DHT22;9758;48.640;8.148;2022-08-21T02:35:26;19.60;46.30
19248;DHT22;9758;48.640;8.148;2022-08-21T02:37:56;19.50;46.20
19248;DHT22;9758;48.640;8.148;2022-08-21T02:40:26;19.60;46.30
19248;DHT22;9758;48.640;8.148;2022-08-21T02:42:53;19.60;46.30
19248;DHT22;9758;48.640;8.148;2022-08-21T02:45:22;19.60;46.30
19248;DHT22;9758;48.640;8.148;2022-08-21T02:47:49;19.50;46.30
19248;DHT22;9758;48.640;8.148;2022-08-21T02:50:20;19.50;46.30
19248;DHT22;9758;48.640;8.148;2022-08-21T02:52:47;19.50;46.30
19248;DHT22;9758;48.640;8.148;2022-08-21T02:55:14;19.50;46.30
19248;DHT22;9758;48.640;8.148;2022-08-21T02:57:41;19.50;46.30
19248;DHT22;9758;48.640;8.148;2022-08-21T03:00:10;19.50;46.30
19248;DHT22;9758;48.640;8.148;2022-08-21T03:02:40;19.50;46.40
19248;DHT22;9758;48.640;8.148;2022-08-21T03:05:08;19.50;46.40
19248;DHT22;9758;48.640;8.148;2022-08-21T03:07:35;19.50;46.40
19248;DHT22;9758;48.640;8.148;2022-08-21T03:10:03;19.40;46.40
19248;DHT22;9758;48.640;8.148;2022-08-21T03:12:29;19.40;46.50
19248;DHT22;9758;48.640;8.148;2022-08-21T03:15:00;19.40;46.50
19248;DHT22;9758;48.640;8.148;2022-08-21T03:17:27;19.40;46.50
19248;DHT22;9758;48.640;8.148;2022-08-21T03:19:55;19.40;46.50
19248;DHT22;9758;48.640;8.148;2022-08-21T03:22:22;19.40;46.50
19248;DHT22;9758;48.640;8.148;2022-08-21T03:24:49;19.40;46.60
19248;DHT22;9758;48.640;8.148;2022-08-21T03:27:16;19.40;46.60
19248;DHT22;9758;48.640;8.148;2022-08-21T03:29:43;19.40;46.60
19248;DHT22;9758;48.640;8.148;2022-08-21T03:32:10;19.30;46.60
19248;DHT22;9758;48.640;8.148;2022-08-21T03:34:37;19.30;46.60
19248;DHT22;9758;48.640;8.148;2022-08-21T03:37:07;19.30;46.60
19248;DHT22;9758;48.640;8.148;2022-08-21T03:39:34;19.30;46.60
19248;DHT22;9758;48.640;8.148;2022-08-21T03:42:02;19.30;46.70
19248;DHT22;9758;48.640;8.148;2022-08-21T03:44:30;19.30;46.70
19248;DHT22;9758;48.640;8.148;2022-08-21T03:46:57;19.30;46.70
19248;DHT22;9758;48.640;8.148;2022-08-21T03:49:25;19.20;46.70
19248;DHT22;9758;48.640;8.148;2022-08-21T03:51:52;19.20;46.70
19248;DHT22;9758;48.640;8.148;2022-08-21T03:54:20;19.20;46.70
19248;DHT22;9758;48.640;8.148;2022-08-21T03:56:47;19.20;46.70
19248;DHT22;9758;48.640;8.148;2022-08-21T03:59:14;19.20;46.80
19248;DHT22;9758;48.640;8.148;2022-08-21T04:01:51;19.20;46.80
19248;DHT22;9758;48.640;8.148;2022-08-21T04:04:18;19.10;46.80
19248;DHT22;9758;48.640;8.148;2022-08-21T04:06:44;19.10;46.80
19248;DHT22;9758;48.640;8.148;2022-08-21T04:09:11;19.10;46.80
19248;DHT22;9758;48.640;8.148;2022-08-21T04:11:39;19.10;46.90
19248;DHT22;9758;48.640;8.148;2022-08-21T04:14:06;19.10;46.90
19248;DHT22;9758;48.640;8.148;2022-08-21T04:16:32;19.10;46.90
19248;DHT22;9758;48.640;8.148;2022-08-21T04:18:59;19.10;47.00
19248;DHT22;9758;48.640;8.148;2022-08-21T04:21:26;19.00;46.90
19248;DHT22;9758;48.640;8.148;2022-08-21T04:23:54;19.00;47.00
19248;DHT22;9758;48.640;8.148;2022-08-21T04:26:21;19.00;47.00
19248;DHT22;9758;48.640;8.148;2022-08-21T04:28:49;19.00;47.00
19248;DHT22;9758;48.640;8.148;2022-08-21T04:31:16;19.00;47.00
19248;DHT22;9758;48.640;8.148;2022-08-21T04:33:42;19.00;47.00
19248;DHT22;9758;48.640;8.148;2022-08-21T04:36:10;19.00;47.10
19248;DHT22;9758;48.640;8.148;2022-08-21T04:38:37;19.00;47.10
19248;DHT22;9758;48.640;8.148;2022-08-21T04:41:04;18.90;47.10
19248;DHT22;9758;48.640;8.148;2022-08-21T04:43:31;18.90;47.10
19248;DHT22;9758;48.640;8.148;2022-08-21T04:46:00;18.90;47.20
19248;DHT22;9758;48.640;8.148;2022-08-21T04:48:27;18.90;47.20
19248;DHT22;9758;48.640;8.148;2022-08-21T04:50:56;18.90;47.20
19248;DHT22;9758;48.640;8.148;2022-08-21T04:53:27;18.90;47.20
19248;DHT22;9758;48.640;8.148;2022-08-21T04:55:57;18.90;47.20
19248;DHT22;9758;48.640;8.148;2022-08-21T04:58:27;18.90;47.20
19248;DHT22;9758;48.640;8.148;2022-08-21T05:00:59;18.90;47.30
19248;DHT22;9758;48.640;8.148;2022-08-21T05:03:27;18.90;47.30
19248;DHT22;9758;48.640;8.148;2022-08-21T05:05:54;18.90;47.30
19248;DHT22;9758;48.640;8.148;2022-08-21T05:08:24;18.90;47.30
19248;DHT22;9758;48.640;8.148;2022-08-21T05:10:52;18.90;47.30
19248;DHT22;9758;48.640;8.148;2022-08-21T05:13:20;18.90;47.30
19248;DHT22;9758;48.640;8.148;2022-08-21T05:15:51;19.00;47.40
19248;DHT22;9758;48.640;8.148;2022-08-21T05:18:20;18.90;47.40
19248;DHT22;9758;48.640;8.148;2022-08-21T05:20:46;19.00;48.00
19248;DHT22;9758;48.640;8.148;2022-08-21T05:23:14;19.00;47.50
19248;DHT22;9758;48.640;8.148;2022-08-21T05:25:41;19.00;47.40
19248;DHT22;9758;48.640;8.148;2022-08-21T05:28:09;19.00;47.40
19248;DHT22;9758;48.640;8.148;2022-08-21T05:30:36;19.00;47.40
19248;DHT22;9758;48.640;8.148;2022-08-21T05:33:05;19.00;47.40
19248;DHT22;9758;48.640;8.148;2022-08-21T05:35:33;19.10;47.50
19248;DHT22;9758;48.640;8.148;2022-08-21T05:38:00;19.10;47.50
19248;DHT22;9758;48.640;8.148;2022-08-21T05:40:27;19.10;47.40
19248;DHT22;9758;48.640;8.148;2022-08-21T05:42:54;19.10;47.40
19248;DHT22;9758;48.640;8.148;2022-08-21T05:45:22;19.10;47.40
19248;DHT22;9758;48.640;8.148;2022-08-21T05:47:49;19.20;47.50
19248;DHT22;9758;48.640;8.148;2022-08-21T05:50:15;19.20;47.50
19248;DHT22;9758;48.640;8.148;2022-08-21T05:52:43;19.20;47.50
19248;DHT22;9758;48.640;8.148;2022-08-21T05:55:10;19.20;47.40
19248;DHT22;9758;48.640;8.148;2022-08-21T05:57:47;19.20;47.40
19248;DHT22;9758;48.640;8.148;2022-08-21T06:00:15;19.30;47.50
19248;DHT22;9758;48.640;8.148;2022-08-21T06:02:42;19.30;47.50
19248;DHT22;9758;48.640;8.148;2022-08-21T06:05:08;19.30;47.50
19248;DHT22;9758;48.640;8.148;2022-08-21T06:07:35;19.30;47.50
19248;DHT22;9758;48.640;8.148;2022-08-21T06:10:04;19.30;47.50
19248;DHT22;9758;48.640;8.148;2022-08-21T06:12:31;19.40;47.50
19248;DHT22;9758;48.640;8.148;2022-08-21T06:14:58;19.30;47.50
19248;DHT22;9758;48.640;8.148;2022-08-21T06:17:24;19.40;47.60
19248;DHT22;9758;48.640;8.148;2022-08-21T06:19:51;19.40;47.60
19248;DHT22;9758;48.640;8.148;2022-08-21T06:22:19;19.40;47.60
19248;DHT22;9758;48.640;8.148;2022-08-21T06:24:46;19.40;47.70
19248;DHT22;9758;48.640;8.148;2022-08-21T06:27:14;19.50;47.70
19248;DHT22;9758;48.640;8.148;2022-08-21T06:29:43;19.50;47.80
19248;DHT22;9758;48.640;8.148;2022-08-21T06:32:11;19.60;47.80
19248;DHT22;9758;48.640;8.148;2022-08-21T06:34:41;19.70;47.80
19248;DHT22;9758;48.640;8.148;2022-08-21T06:37:08;19.80;47.90
19248;DHT22;9758;48.640;8.148;2022-08-21T06:39:35;19.80;47.80
19248;DHT22;9758;48.640;8.148;2022-08-21T06:42:02;20.00;47.80
19248;DHT22;9758;48.640;8.148;2022-08-21T06:44:31;20.00;47.80
19248;DHT22;9758;48.640;8.148;2022-08-21T06:46:57;20.20;47.80
19248;DHT22;9758;48.640;8.148;2022-08-21T06:49:24;20.30;47.70
19248;DHT22;9758;48.640;8.148;2022-08-21T06:51:51;20.40;47.70
19248;DHT22;9758;48.640;8.148;2022-08-21T06:54:17;20.50;47.70
19248;DHT22;9758;48.640;8.148;2022-08-21T06:56:44;20.60;47.60
19248;DHT22;9758;48.640;8.148;2022-08-21T06:59:11;20.70;47.60
19248;DHT22;9758;48.640;8.148;2022-08-21T07:01:40;20.80;47.60
19248;DHT22;9758;48.640;8.148;2022-08-21T07:04:06;21.00;47.60
19248;DHT22;9758;48.640;8.148;2022-08-21T07:06:36;21.10;47.50
19248;DHT22;9758;48.640;8.148;2022-08-21T07:09:03;21.20;47.50
19248;DHT22;9758;48.640;8.148;2022-08-21T07:11:30;21.30;47.40
19248;DHT22;9758;48.640;8.148;2022-08-21T07:13:57;21.50;47.40
19248;DHT22;9758;48.640;8.148;2022-08-21T07:16:24;21.60;47.30
19248;DHT22;9758;48.640;8.148;2022-08-21T07:18:52;21.70;47.20
19248;DHT22;9758;48.640;8.148;2022-08-21T07:21:19;21.80;47.10
19248;DHT22;9758;48.640;8.148;2022-08-21T07:23:48;22.00;47.10
19248;DHT22;9758;48.640;8.148;2022-08-21T07:26:17;22.10;47.00
19248;DHT22;9758;48.640;8.148;2022-08-21T07:28:45;22.20;46.90
19248;DHT22;9758;48.640;8.148;2022-08-21T07:31:14;22.30;46.80
19248;DHT22;9758;48.640;8.148;2022-08-21T07:33:41;22.30;46.60
19248;DHT22;9758;48.640;8.148;2022-08-21T07:36:10;22.50;46.60
19248;DHT22;9758;48.640;8.148;2022-08-21T07:38:37;22.50;46.50
19248;DHT22;9758;48.640;8.148;2022-08-21T07:41:10;22.60;46.50
19248;DHT22;9758;48.640;8.148;2022-08-21T07:43:40;22.70;46.40
19248;DHT22;9758;48.640;8.148;2022-08-21T07:46:07;22.70;46.30
19248;DHT22;9758;48.640;8.148;2022-08-21T07:48:34;22.80;46.30
19248;DHT22;9758;48.640;8.148;2022-08-21T07:51:04;22.80;46.20
19248;DHT22;9758;48.640;8.148;2022-08-21T07:53:33;22.90;46.20
19248;DHT22;9758;48.640;8.148;2022-08-21T07:56:00;23.00;46.10
19248;DHT22;9758;48.640;8.148;2022-08-21T07:58:27;23.10;46.10
19248;DHT22;9758;48.640;8.148;2022-08-21T08:00:54;23.10;46.10
19248;DHT22;9758;48.640;8.148;2022-08-21T08:03:21;23.10;46.00
19248;DHT22;9758;48.640;8.148;2022-08-21T08:05:47;23.20;46.00
19248;DHT22;9758;48.640;8.148;2022-08-21T08:08:14;23.20;46.00
19248;DHT22;9758;48.640;8.148;2022-08-21T08:10:43;23.30;46.00
19248;DHT22;9758;48.640;8.148;2022-08-21T08:13:10;23.40;46.50
19248;DHT22;9758;48.640;8.148;2022-08-21T08:15:37;23.40;45.80
19248;DHT22;9758;48.640;8.148;2022-08-21T08:18:04;23.50;45.80
19248;DHT22;9758;48.640;8.148;2022-08-21T08:20:31;23.50;45.80
19248;DHT22;9758;48.640;8.148;2022-08-21T08:22:58;23.60;45.80
19248;DHT22;9758;48.640;8.148;2022-08-21T08:25:25;23.60;45.70
19248;DHT22;9758;48.640;8.148;2022-08-21T08:27:54;23.70;45.60
19248;DHT22;9758;48.640;8.148;2022-08-21T08:30:21;23.70;45.60
19248;DHT22;9758;48.640;8.148;2022-08-21T08:32:49;23.80;45.60
19248;DHT22;9758;48.640;8.148;2022-08-21T08:35:23;23.80;45.60
19248;DHT22;9758;48.640;8.148;2022-08-21T08:37:51;23.80;45.60
19248;DHT22;9758;48.640;8.148;2022-08-21T08:40:21;23.90;45.50
19248;DHT22;9758;48.640;8.148;2022-08-21T08:42:49;23.90;45.50
19248;DHT22;9758;48.640;8.148;2022-08-21T08:45:20;24.00;45.50
19248;DHT22;9758;48.640;8.148;2022-08-21T08:47:52;24.00;45.50
19248;DHT22;9758;48.640;8.148;2022-08-21T08:50:40;24.00;45.50
19248;DHT22;9758;48.640;8.148;2022-08-21T08:53:11;24.10;45.30
19248;DHT22;9758;48.640;8.148;2022-08-21T08:55:40;24.20;45.40
19248;DHT22;9758;48.640;8.148;2022-08-21T08:58:09;24.30;45.40
19248;DHT22;9758;48.640;8.148;2022-08-21T09:00:39;24.30;45.30
19248;DHT22;9758;48.640;8.148;2022-08-21T09:03:06;24.30;45.30
19248;DHT22;9758;48.640;8.148;2022-08-21T09:05:42;24.40;45.20
19248;DHT22;9758;48.640;8.148;2022-08-21T09:08:26;24.40;45.20
19248;DHT22;9758;48.640;8.148;2022-08-21T09:11:01;24.50;45.20
19248;DHT22;9758;48.640;8.148;2022-08-21T09:13:40;24.60;45.20
19248;DHT22;9758;48.640;8.148;2022-08-21T09:16:18;24.60;45.10
19248;DHT22;9758;48.640;8.148;2022-08-21T09:18:52;24.70;45.00
19248;DHT22;9758;48.640;8.148;2022-08-21T09:21:28;24.80;44.90
19248;DHT22;9758;48.640;8.148;2022-08-21T09:24:01;24.80;44.80
19248;DHT22;9758;48.640;8.148;2022-08-21T09:26:34;24.90;44.80
19248;DHT22;9758;48.640;8.148;2022-08-21T09:29:03;24.90;44.80
19248;DHT22;9758;48.640;8.148;2022-08-21T09:31:33;25.00;44.80
19248;DHT22;9758;48.640;8.148;2022-08-21T09:34:04;25.10;44.80
19248;DHT22;9758;48.640;8.148;2022-08-21T09:36:37;25.10;44.60
19248;DHT22;9758;48.640;8.148;2022-08-21T09:39:04;25.20;44.60
19248;DHT22;9758;48.640;8.148;2022-08-21T09:41:33;25.20;44.50
19248;DHT22;9758;48.640;8.148;2022-08-21T09:44:01;25.20;44.30
19248;DHT22;9758;48.640;8.148;2022-08-21T09:46:28;25.20;44.30
19248;DHT22;9758;48.640;8.148;2022-08-21T09:48:58;25.20;44.40
19248;DHT22;9758;48.640;8.148;2022-08-21T09:51:29;25.20;44.40
19248;DHT22;9758;48.640;8.148;2022-08-21T09:54:10;25.20;44.40
19248;DHT22;9758;48.640;8.148;2022-08-21T09:56:55;25.30;44.40
19248;DHT22;9758;48.640;8.148;2022-08-21T09:59:41;25.40;44.30
19248;DHT22;9758;48.640;8.148;2022-08-21T10:02:25;25.50;44.40
19248;DHT22;9758;48.640;8.148;2022-08-21T10:04:59;25.60;44.20
19248;DHT22;9758;48.640;8.148;2022-08-21T10:07:28;25.70;44.20
19248;DHT22;9758;48.640;8.148;2022-08-21T10:10:03;25.80;44.00
19248;DHT22;9758;48.640;8.148;2022-08-21T10:12:40;25.80;43.90
19248;DHT22;9758;48.640;8.148;2022-08-21T10:15:15;25.90;44.00
19248;DHT22;9758;48.640;8.148;2022-08-21T10:17:50;25.90;43.70
19248;DHT22;9758;48.640;8.148;2022-08-21T10:20:23;26.00;43.80
19248;DHT22;9758;48.640;8.148;2022-08-21T10:23:02;26.00;43.80
19248;DHT22;9758;48.640;8.148;2022-08-21T10:25:37;26.10;43.60
19248;DHT22;9758;48.640;8.148;2022-08-21T10:28:09;26.20;43.70
19248;DHT22;9758;48.640;8.148;2022-08-21T10:30:44;26.20;43.70
19248;DHT22;9758;48.640;8.148;2022-08-21T10:33:29;26.20;43.60
19248;DHT22;9758;48.640;8.148;2022-08-21T10:36:06;26.30;43.50
19248;DHT22;9758;48.640;8.148;2022-08-21T10:39:01;26.40;43.40
19248;DHT22;9758;48.640;8.148;2022-08-21T10:41:46;26.40;43.80
19248;DHT22;9758;48.640;8.148;2022-08-21T10:44:23;26.40;43.30
19248;DHT22;9758;48.640;8.148;2022-08-21T10:46:56;26.50;43.30
19248;DHT22;9758;48.640;8.148;2022-08-21T10:49:38;26.50;43.30
19248;DHT22;9758;48.640;8.148;2022-08-21T10:52:35;26.60;43.20
19248;DHT22;9758;48.640;8.148;2022-08-21T10:55:11;26.70;43.00
19248;DHT22;9758;48.640;8.148;2022-08-21T10:57:42;26.70;43.10
19248;DHT22;9758;48.640;8.148;2022-08-21T11:00:15;26.80;43.10
19248;DHT22;9758;48.640;8.148;2022-08-21T11:02:46;26.90;43.10
19248;DHT22;9758;48.640;8.148;2022-08-21T11:05:19;26.90;42.90
19248;DHT22;9758;48.640;8.148;2022-08-21T11:07:54;26.90;42.80
19248;DHT22;9758;48.640;8.148;2022-08-21T11:10:24;27.00;42.80
19248;DHT22;9758;48.640;8.148;2022-08-21T11:12:56;27.00;42.80
19248;DHT22;9758;48.640;8.148;2022-08-21T11:15:33;27.10;42.80
19248;DHT22;9758;48.640;8.148;2022-08-21T11:18:13;27.10;42.70
19248;DHT22;9758;48.640;8.148;2022-08-21T11:20:45;27.20;42.80
19248;DHT22;9758;48.640;8.148;2022-08-21T11:23:18;27.20;42.60
19248;DHT22;9758;48.640;8.148;2022-08-21T11:25:50;27.30;42.70
19248;DHT22;9758;48.640;8.148;2022-08-21T11:28:24;27.40;42.60
19248;DHT22;9758;48.640;8.148;2022-08-21T11:31:02;27.40;42.50
19248;DHT22;9758;48.640;8.148;2022-08-21T11:33:45;27.50;42.50
19248;DHT22;9758;48.640;8.148;2022-08-21T11:36:20;27.60;42.40
19248;DHT22;9758;48.640;8.148;2022-08-21T11:38:55;27.60;42.20
19248;DHT22;9758;48.640;8.148;2022-08-21T11:41:28;27.60;42.20
19248;DHT22;9758;48.640;8.148;2022-08-21T11:44:04;27.60;42.20
19248;DHT22;9758;48.640;8.148;2022-08-21T11:46:39;27.60;42.10
19248;DHT22;9758;48.640;8.148;2022-08-21T11:49:23;27.70;42.00
19248;DHT22;9758;48.640;8.148;2022-08-21T11:51:58;27.70;42.10
19248;DHT22;9758;48.640;8.148;2022-08-21T11:54:34;27.70;42.10
19248;DHT22;9758;48.640;8.148;2022-08-21T11:57:06;27.70;42.10
19248;DHT22;9758;48.640;8.148;2022-08-21T11:59:37;27.70;42.00
19248;DHT22;9758;48.640;8.148;2022-08-21T12:02:12;27.80;42.00
19248;DHT22;9758;48.640;8.148;2022-08-21T12:04:45;27.80;42.10
19248;DHT22;9758;48.640;8.148;2022-08-21T12:07:14;27.90;42.00
19248;DHT22;9758;48.640;8.148;2022-08-21T12:09:52;28.00;42.00
19248;DHT22;9758;48.640;8.148;2022-08-21T12:12:25;28.10;42.00
19248;DHT22;9758;48.640;8.148;2022-08-21T12:15:07;28.30;42.00
19248;DHT22;9758;48.640;8.148;2022-08-21T12:17:40;28.40;41.60
19248;DHT22;9758;48.640;8.148;2022-08-21T12:23:06;28.40;41.60
19248;DHT22;9758;48.640;8.148;2022-08-21T12:25:44;28.40;41.50
19248;DHT22;9758;48.640;8.148;2022-08-21T12:28:15;28.50;41.50
19248;DHT22;9758;48.640;8.148;2022-08-21T12:30:44;28.50;41.50
19248;DHT22;9758;48.640;8.148;2022-08-21T12:33:23;28.50;41.50
19248;DHT22;9758;48.640;8.148;2022-08-21T12:36:00;28.50;41.30
19248;DHT22;9758;48.640;8.148;2022-08-21T12:38:29;28.50;41.40
19248;DHT22;9758;48.640;8.148;2022-08-21T12:41:02;28.50;41.30
19248;DHT22;9758;48.640;8.148;2022-08-21T12:43:33;28.50;41.40
19248;DHT22;9758;48.640;8.148;2022-08-21T12:46:01;28.50;41.40
19248;DHT22;9758;48.640;8.148;2022-08-21T12:48:33;28.60;41.40
19248;DHT22;9758;48.640;8.148;2022-08-21T12:51:09;28.70;41.30
19248;DHT22;9758;48.640;8.148;2022-08-21T12:53:41;28.60;41.20
19248;DHT22;9758;48.640;8.148;2022-08-21T12:56:14;28.70;41.20
19248;DHT22;9758;48.640;8.148;2022-08-21T12:58:45;28.70;41.20
19248;DHT22;9758;48.640;8.148;2022-08-21T13:01:19;28.80;41.20
19248;DHT22;9758;48.640;8.148;2022-08-21T13:03:48;28.80;41.20
19248;DHT22;9758;48.640;8.148;2022-08-21T13:06:18;28.90;40.50
19248;DHT22;9758;48.640;8.148;2022-08-21T13:08:47;28.90;40.80
19248;DHT22;9758;48.640;8.148;2022-08-21T13:11:18;28.80;40.80
19248;DHT22;9758;48.640;8.148;2022-08-21T13:13:49;28.90;41.00
19248;DHT22;9758;48.640;8.148;2022-08-21T13:16:22;28.90;40.90
19248;DHT22;9758;48.640;8.148;2022-08-21T13:18:55;29.00;40.90
19248;DHT22;9758;48.640;8.148;2022-08-21T13:21:28;29.10;40.90
19248;DHT22;9758;48.640;8.148;2022-08-21T13:24:15;29.20;40.90
19248;DHT22;9758;48.640;8.148;2022-08-21T13:26:45;29.30;40.50
19248;DHT22;9758;48.640;8.148;2022-08-21T13:29:13;29.40;40.60
19248;DHT22;9758;48.640;8.148;2022-08-21T13:31:46;29.40;40.60
19248;DHT22;9758;48.640;8.148;2022-08-21T13:34:14;29.50;40.50
19248;DHT22;9758;48.640;8.148;2022-08-21T13:36:43;29.50;40.40
19248;DHT22;9758;48.640;8.148;2022-08-21T13:39:12;29.60;40.30
19248;DHT22;9758;48.640;8.148;2022-08-21T13:41:45;29.60;40.30
19248;DHT22;9758;48.640;8.148;2022-08-21T13:44:18;29.70;40.40
19248;DHT22;9758;48.640;8.148;2022-08-21T13:46:46;29.70;40.20
19248;DHT22;9758;48.640;8.148;2022-08-21T13:49:15;29.70;40.10
19248;DHT22;9758;48.640;8.148;2022-08-21T13:51:44;29.80;40.20
19248;DHT22;9758;48.640;8.148;2022-08-21T13:54:23;29.80;39.80
19248;DHT22;9758;48.640;8.148;2022-08-21T13:56:53;29.80;40.00
19248;DHT22;9758;48.640;8.148;2022-08-21T13:59:25;29.80;40.10
19248;DHT22;9758;48.640;8.148;2022-08-21T14:01:55;29.90;40.20
19248;DHT22;9758;48.640;8.148;2022-08-21T14:04:29;30.00;40.10
19248;DHT22;9758;48.640;8.148;2022-08-21T14:06:58;30.10;40.00
19248;DHT22;9758;48.640;8.148;2022-08-21T14:09:30;30.10;39.80
19248;DHT22;9758;48.640;8.148;2022-08-21T14:12:01;30.10;39.70
19248;DHT22;9758;48.640;8.148;2022-08-21T14:14:30;30.20;39.80
19248;DHT22;9758;48.640;8.148;2022-08-21T14:17:01;30.20;39.30
19248;DHT22;9758;48.640;8.148;2022-08-21T14:19:36;30.10;39.40
19248;DHT22;9758;48.640;8.148;2022-08-21T14:22:21;30.10;39.60
19248;DHT22;9758;48.640;8.148;2022-08-21T14:24:49;30.10;39.00
19248;DHT22;9758;48.640;8.148;2022-08-21T14:27:18;30.10;39.50
19248;DHT22;9758;48.640;8.148;2022-08-21T14:29:44;30.10;39.50
19248;DHT22;9758;48.640;8.148;2022-08-21T14:32:14;30.10;39.50
19248;DHT22;9758;48.640;8.148;2022-08-21T14:34:41;30.10;39.40
19248;DHT22;9758;48.640;8.148;2022-08-21T14:37:08;30.10;39.40
19248;DHT22;9758;48.640;8.148;2022-08-21T14:39:35;30.20;39.50
19248;DHT22;9758;48.640;8.148;2022-08-21T14:42:02;30.30;39.60
19248;DHT22;9758;48.640;8.148;2022-08-21T14:44:30;30.30;39.50
19248;DHT22;9758;48.640;8.148;2022-08-21T14:46:58;30.40;39.40
19248;DHT22;9758;48.640;8.148;2022-08-21T14:49:27;30.40;39.30
19248;DHT22;9758;48.640;8.148;2022-08-21T14:51:54;30.40;39.20
19248;DHT22;9758;48.640;8.148;2022-08-21T14:54:22;30.50;38.90
19248;DHT22;9758;48.640;8.148;2022-08-21T14:56:50;30.50;39.00
19248;DHT22;9758;48.640;8.148;2022-08-21T14:59:17;30.60;39.10
19248;DHT22;9758;48.640;8.148;2022-08-21T15:01:46;30.60;39.20
19248;DHT22;9758;48.640;8.148;2022-08-21T15:04:13;30.60;39.10
19248;DHT22;9758;48.640;8.148;2022-08-21T15:06:41;30.70;38.90
19248;DHT22;9758;48.640;8.148;2022-08-21T15:09:07;30.70;38.90
19248;DHT22;9758;48.640;8.148;2022-08-21T15:11:34;30.80;38.90
19248;DHT22;9758;48.640;8.148;2022-08-21T15:14:03;30.70;38.80
19248;DHT22;9758;48.640;8.148;2022-08-21T15:16:31;30.80;38.70
19248;DHT22;9758;48.640;8.148;2022-08-21T15:19:00;30.70;38.60
19248;DHT22;9758;48.640;8.148;2022-08-21T15:21:26;30.80;38.80
19248;DHT22;9758;48.640;8.148;2022-08-21T15:23:53;30.80;38.80
19248;DHT22;9758;48.640;8.148;2022-08-21T15:26:22;31.00;39.00
19248;DHT22;9758;48.640;8.148;2022-08-21T15:28:49;31.30;39.60
19248;DHT22;9758;48.640;8.148;2022-08-21T15:31:16;31.80;39.90
19248;DHT22;9758;48.640;8.148;2022-08-21T15:33:42;32.50;40.10
19248;DHT22;9758;48.640;8.148;2022-08-21T15:36:11;33.40;39.70
19248;DHT22;9758;48.640;8.148;2022-08-21T15:38:37;34.30;39.30
19248;DHT22;9758;48.640;8.148;2022-08-21T15:41:05;35.30;38.70
19248;DHT22;9758;48.640;8.148;2022-08-21T15:43:39;36.30;37.80
19248;DHT22;9758;48.640;8.148;2022-08-21T15:46:10;37.20;36.80
19248;DHT22;9758;48.640;8.148;2022-08-21T15:48:38;38.00;36.80
19248;DHT22;9758;48.640;8.148;2022-08-21T15:51:05;38.70;36.40
19248;DHT22;9758;48.640;8.148;2022-08-21T15:53:33;39.40;35.90
19248;DHT22;9758;48.640;8.148;2022-08-21T15:56:04;40.30;35.50
19248;DHT22;9758;48.640;8.148;2022-08-21T15:58:31;41.00;34.90
19248;DHT22;9758;48.640;8.148;2022-08-21T16:00:59;41.60;34.40
19248;DHT22;9758;48.640;8.148;2022-08-21T16:03:26;42.10;34.10